createdAt,value
2022-11-13T00:02:39.816Z,7.60
2022-11-13T00:07:41.641Z,7.07
2022-11-13T00:12:43.437Z,7.80
2022-11-13T00:17:45.338Z,8.77
2022-11-13T00:22:47.244Z,9.07
2022-11-13T00:27:49.019Z,8.98
2022-11-13T00:32:50.857Z,10.25
2022-11-13T00:37:52.618Z,8.85
2022-11-13T00:42:54.386Z,7.60
2022-11-13T00:47:56.465Z,8.40
2022-11-13T00:52:58.271Z,8.02
2022-11-13T00:58:00.001Z,8.15
2022-11-13T01:03:02.074Z,8.32
2022-11-13T01:08:04.467Z,11.95
2022-11-13T01:13:06.263Z,12.30
2022-11-13T01:18:08.339Z,7.75
2022-11-13T01:23:10.175Z,7.93
2022-11-13T01:28:12.001Z,7.85
2022-11-13T01:33:13.794Z,7.63
2022-11-13T01:38:15.610Z,6.85
2022-11-13T01:43:32.457Z,11.30
2022-11-13T01:48:42.187Z,9.13
2022-11-13T01:53:47.004Z,7.45
2022-11-13T01:58:55.240Z,8.05
2022-11-13T02:03:57.139Z,7.10
2022-11-13T02:08:59.499Z,7.55
2022-11-13T02:14:02.805Z,8.02
2022-11-13T02:19:10.200Z,7.30
2022-11-13T02:24:26.294Z,7.18
2022-11-13T02:29:28.153Z,6.75
2022-11-13T02:34:29.863Z,8.98
2022-11-13T02:39:31.743Z,9.40
2022-11-13T02:44:33.608Z,9.38
2022-11-13T02:49:35.508Z,9.80
2022-11-13T02:54:37.276Z,9.35
2022-11-13T02:59:39.031Z,8.27
2022-11-13T03:05:10.314Z,8.25
2022-11-13T03:10:02.911Z,12.10
2022-11-13T03:15:06.274Z,11.38
2022-11-13T03:20:08.442Z,9.40
2022-11-13T03:25:10.996Z,9.68
2022-11-13T03:30:13.244Z,18.02
2022-11-13T03:35:15.092Z,8.60
2022-11-13T03:40:17.659Z,14.18
2022-11-13T03:45:19.397Z,6.60
2022-11-13T03:50:21.202Z,9.65
2022-11-13T03:55:23.096Z,7.03
2022-11-13T04:00:24.926Z,6.57
2022-11-13T04:05:27.218Z,14.23
2022-11-13T04:10:29.126Z,12.05
2022-11-13T04:15:30.868Z,8.32
2022-11-13T04:20:32.813Z,9.57
2022-11-13T04:25:34.646Z,5.93
2022-11-13T04:30:36.890Z,10.32
2022-11-13T04:35:39.225Z,11.88
2022-11-13T04:40:41.611Z,8.98
2022-11-13T04:45:43.351Z,7.43
2022-11-13T04:50:46.735Z,8.30
2022-11-13T04:55:48.488Z,6.20
2022-11-13T05:00:50.283Z,8.43
2022-11-13T05:05:52.020Z,6.47
2022-11-13T05:10:53.864Z,6.60
2022-11-13T05:16:11.466Z,6.80
2022-11-13T05:21:13.552Z,7.25
2022-11-13T05:26:15.722Z,7.30
2022-11-13T05:31:17.735Z,7.45
2022-11-13T05:36:20.621Z,8.45
2022-11-13T05:41:23.597Z,7.70
2022-11-13T05:46:28.001Z,8.88
2022-11-13T05:51:32.570Z,8.18
2022-11-13T05:56:36.440Z,7.35
2022-11-13T06:01:40.333Z,6.82
2022-11-13T06:06:43.191Z,7.50
2022-11-13T06:11:45.313Z,7.90
2022-11-13T06:16:47.066Z,7.15
2022-11-13T06:21:48.877Z,8.93
2022-11-13T06:26:50.746Z,6.65
2022-11-13T06:31:52.490Z,6.45
2022-11-13T06:36:54.211Z,7.47
2022-11-13T06:41:56.006Z,6.60
2022-11-13T06:46:57.795Z,7.93
2022-11-13T06:51:59.514Z,13.93
2022-11-13T06:57:01.252Z,10.13
2022-11-13T07:02:03.754Z,7.47
2022-11-13T07:07:05.640Z,9.70
2022-11-13T07:12:07.639Z,8.35
2022-11-13T07:17:10.511Z,8.10
2022-11-13T07:22:12.540Z,10.15
2022-11-13T07:27:14.335Z,10.85
2022-11-13T07:32:16.261Z,9.93
2022-11-13T07:37:19.029Z,9.57
2022-11-13T07:42:20.899Z,7.90
2022-11-13T07:47:23.337Z,6.68
2022-11-13T07:52:25.161Z,6.07
2022-11-13T07:57:27.273Z,5.47
2022-11-13T08:02:29.142Z,4.75
2022-11-13T08:07:30.968Z,4.68
2022-11-13T08:12:32.843Z,4.97
2022-11-13T08:17:34.635Z,5.72
2022-11-13T08:22:36.487Z,5.80
2022-11-13T08:27:38.511Z,5.40
2022-11-13T08:32:40.508Z,5.18
2022-11-13T08:37:42.293Z,4.50
2022-11-13T08:42:44.094Z,4.80
2022-11-13T08:47:45.918Z,4.10
2022-11-13T08:52:47.750Z,3.58
2022-11-13T08:57:49.893Z,3.45
2022-11-13T09:02:59.357Z,3.80
2022-11-13T09:08:01.609Z,4.22
2022-11-13T09:13:05.628Z,4.10
2022-11-13T09:18:07.647Z,3.70
2022-11-13T09:23:09.594Z,3.90
2022-11-13T09:28:11.710Z,3.90
2022-11-13T09:33:15.550Z,5.40
2022-11-13T09:38:17.299Z,4.78
2022-11-13T09:43:43.134Z,5.25
2022-11-13T09:49:09.322Z,9.38
2022-11-13T09:54:14.366Z,3.97
2022-11-13T10:00:05.710Z,4.85
2022-11-13T10:05:20.108Z,4.97
2022-11-13T10:10:50.551Z,4.70
2022-11-13T10:16:12.606Z,3.40
2022-11-13T10:21:27.755Z,3.80
2022-11-13T10:26:29.956Z,3.97
2022-11-13T10:31:53.003Z,3.47
2022-11-13T10:37:11.134Z,3.40
2022-11-13T10:42:25.000Z,3.22
2022-11-13T10:48:02.111Z,3.78
2022-11-13T10:52:52.058Z,3.13
2022-11-13T10:57:59.816Z,3.15
2022-11-13T11:03:01.964Z,4.45
2022-11-13T11:08:09.960Z,4.78
2022-11-13T11:13:20.566Z,3.70
2022-11-13T11:18:36.809Z,6.80
2022-11-13T11:24:06.499Z,6.78
2022-11-13T11:29:34.958Z,6.38
2022-11-13T11:34:44.733Z,5.50
2022-11-13T11:40:00.666Z,6.68
2022-11-13T11:45:16.855Z,5.40
2022-11-13T11:50:39.878Z,4.38
2022-11-13T11:55:53.730Z,4.93
2022-11-13T12:01:04.797Z,6.00
2022-11-13T12:06:07.247Z,7.70
2022-11-13T12:11:22.985Z,5.72
2022-11-13T12:16:31.911Z,8.85
2022-11-13T12:21:57.441Z,20.60
2022-11-13T12:27:50.785Z,23.83
2022-11-13T12:32:58.806Z,8.70
2022-11-13T12:38:19.212Z,10.43
2022-11-13T12:43:27.186Z,13.65
2022-11-13T12:48:41.539Z,15.07
2022-11-13T12:53:44.974Z,13.52
2022-11-13T12:59:29.873Z,14.57
2022-11-13T13:05:02.600Z,11.23
2022-11-13T13:10:29.602Z,12.18
2022-11-13T13:15:38.380Z,16.85
2022-11-13T13:21:06.543Z,17.75
2022-11-13T13:26:24.057Z,15.63
2022-11-13T13:31:40.893Z,14.65
2022-11-13T13:37:05.566Z,18.30
2022-11-13T13:42:13.190Z,9.35
2022-11-13T13:47:24.201Z,14.43
2022-11-13T13:52:33.013Z,22.13
2022-11-13T13:57:40.927Z,32.17
2022-11-13T14:02:53.499Z,23.50
2022-11-13T14:07:57.397Z,23.10
2022-11-13T14:12:59.265Z,37.05
2022-11-13T14:18:18.030Z,28.17
2022-11-13T14:28:27.813Z,27.75
2022-11-13T14:33:40.091Z,36.10
2022-11-13T14:38:51.837Z,30.02
2022-11-13T14:43:54.531Z,26.58
2022-11-13T14:48:57.455Z,30.23
2022-11-13T14:54:08.751Z,27.60
2022-11-13T14:59:19.781Z,29.00
2022-11-13T15:04:22.372Z,28.15
2022-11-13T15:09:25.519Z,29.67
2022-11-13T15:14:27.397Z,35.50
2022-11-13T15:19:35.295Z,28.63
2022-11-13T15:24:37.232Z,23.50
2022-11-13T15:29:38.965Z,19.25
2022-11-13T15:34:40.729Z,23.48
2022-11-13T15:39:42.617Z,23.30
2022-11-13T15:44:44.421Z,22.80
2022-11-13T15:49:56.716Z,24.33
2022-11-13T16:00:26.842Z,14.73
2022-11-13T16:05:29.478Z,16.58
2022-11-13T16:10:31.662Z,17.00
2022-11-13T16:15:33.694Z,14.18
2022-11-13T16:20:35.409Z,18.20
2022-11-13T16:25:37.366Z,20.08
2022-11-13T16:30:40.089Z,33.05
2022-11-13T16:35:41.827Z,50.65
2022-11-13T16:40:45.518Z,68.03
2022-11-13T16:45:47.320Z,67.82
2022-11-13T16:50:49.082Z,57.60
2022-11-13T16:55:51.046Z,65.88
2022-11-13T17:00:58.869Z,62.20
2022-11-13T17:06:01.714Z,77.65
2022-11-13T17:11:03.475Z,94.85
2022-11-13T17:16:05.462Z,86.28
2022-11-13T17:21:07.572Z,104.75
2022-11-13T17:26:09.529Z,83.85
2022-11-13T17:31:14.688Z,101.88
2022-11-13T17:36:16.535Z,99.00
2022-11-13T17:41:18.900Z,70.35
2022-11-13T17:46:20.826Z,63.13
2022-11-13T17:51:22.748Z,30.40
2022-11-13T17:56:24.745Z,33.90
2022-11-13T18:01:26.705Z,64.32
2022-11-13T18:06:28.809Z,53.78
2022-11-13T18:11:30.733Z,54.63
2022-11-13T18:16:37.454Z,49.03
2022-11-13T18:21:40.722Z,47.65
2022-11-13T18:26:43.468Z,47.72
2022-11-13T18:31:45.390Z,46.53
2022-11-13T18:36:47.376Z,82.28
2022-11-13T18:41:50.479Z,65.70
2022-11-13T18:46:52.317Z,65.13
2022-11-13T18:51:54.299Z,51.78
2022-11-13T18:56:56.137Z,37.67
2022-11-13T19:01:57.971Z,32.47
2022-11-13T19:06:59.887Z,31.52
2022-11-13T19:12:01.872Z,29.60
2022-11-13T19:17:03.662Z,30.80
2022-11-13T19:22:05.650Z,26.58
2022-11-13T19:27:07.572Z,26.90
2022-11-13T19:32:09.528Z,35.58
2022-11-13T19:37:16.251Z,32.05
2022-11-13T19:42:20.591Z,29.48
2022-11-13T19:47:22.482Z,40.90
2022-11-13T19:52:24.403Z,27.52
2022-11-13T19:57:26.258Z,20.30
2022-11-13T20:02:28.237Z,17.77
2022-11-13T20:07:30.303Z,18.55
2022-11-13T20:12:32.254Z,20.00
2022-11-13T20:17:34.063Z,17.83
2022-11-13T20:22:35.998Z,20.33
2022-11-13T20:27:39.163Z,21.25
2022-11-13T20:32:42.639Z,22.02
2022-11-13T20:37:44.383Z,20.95
2022-11-13T20:42:46.234Z,20.13
2022-11-13T20:47:47.974Z,20.83
2022-11-13T20:52:49.729Z,22.73
2022-11-13T20:57:51.640Z,21.55
2022-11-13T21:02:53.370Z,21.95
2022-11-13T21:07:55.482Z,19.25
2022-11-13T21:12:57.319Z,17.15
2022-11-13T21:17:59.199Z,19.60
2022-11-13T21:23:01.132Z,20.73
2022-11-13T21:28:03.302Z,26.90
2022-11-13T21:33:05.105Z,20.98
2022-11-13T21:38:07.012Z,22.27
2022-11-13T21:43:08.851Z,18.02
2022-11-13T21:48:10.843Z,17.35
2022-11-13T21:53:12.696Z,14.50
2022-11-13T21:58:14.864Z,17.52
2022-11-13T22:03:16.581Z,19.92
2022-11-13T22:08:18.559Z,23.70
2022-11-13T22:13:20.418Z,20.50
2022-11-13T22:18:22.303Z,18.15
2022-11-13T22:23:24.035Z,17.80
2022-11-13T22:28:25.842Z,16.23
2022-11-13T22:33:31.555Z,16.73
2022-11-13T22:38:34.546Z,14.57
2022-11-13T22:43:40.472Z,17.92
2022-11-13T22:48:44.110Z,17.42
2022-11-13T22:53:59.443Z,17.60
2022-11-13T22:59:03.097Z,17.80
2022-11-13T23:04:07.780Z,19.58
2022-11-13T23:09:10.325Z,20.70
2022-11-13T23:14:15.774Z,19.42
2022-11-13T23:19:18.104Z,22.85
2022-11-13T23:24:19.882Z,20.98
2022-11-13T23:29:21.827Z,22.38
2022-11-13T23:34:45.343Z,20.83
2022-11-13T23:39:45.385Z,23.15
2022-11-13T23:44:47.258Z,20.75
2022-11-13T23:49:49.178Z,23.58
2022-11-13T23:54:50.955Z,29.45
2022-11-13T23:59:52.703Z,28.33
